createdAt,value
2022-12-03T00:00:58.336Z,4.76
2022-12-03T00:03:29.404Z,4.70
2022-12-03T00:05:59.697Z,4.67
2022-12-03T00:08:33.507Z,4.64
2022-12-03T00:11:03.625Z,4.64
2022-12-03T00:13:33.704Z,4.61
2022-12-03T00:16:06.717Z,4.63
2022-12-03T00:18:36.901Z,4.62
2022-12-03T00:21:07.246Z,4.61
2022-12-03T00:23:42.102Z,4.58
2022-12-03T00:26:12.515Z,4.48
2022-12-03T00:28:42.539Z,4.50
2022-12-03T00:31:15.316Z,4.51
2022-12-03T00:33:45.605Z,4.58
2022-12-03T00:36:15.679Z,4.37
2022-12-03T00:38:46.883Z,4.60
2022-12-03T00:41:16.974Z,4.56
2022-12-03T00:43:47.110Z,4.58
2022-12-03T00:46:21.560Z,4.63
2022-12-03T00:48:51.960Z,4.67
2022-12-03T00:51:22.534Z,4.71
2022-12-03T00:53:55.937Z,4.77
2022-12-03T00:56:26.050Z,4.79
2022-12-03T00:58:56.223Z,4.85
2022-12-03T01:01:28.999Z,4.82
2022-12-03T01:03:59.345Z,4.81
2022-12-03T01:06:29.452Z,4.81
2022-12-03T01:08:59.529Z,4.83
2022-12-03T01:11:41.976Z,4.82
2022-12-03T01:14:14.707Z,4.86
2022-12-03T01:16:47.765Z,4.86
2022-12-03T01:19:19.534Z,4.89
2022-12-03T01:21:51.564Z,4.90
2022-12-03T01:24:22.949Z,4.89
2022-12-03T01:26:53.059Z,4.82
2022-12-03T01:29:23.036Z,4.86
2022-12-03T01:32:08.106Z,4.91
2022-12-03T01:34:38.138Z,4.90
2022-12-03T01:37:08.216Z,4.89
2022-12-03T01:39:38.642Z,4.91
2022-12-03T01:42:10.923Z,4.85
2022-12-03T01:44:42.612Z,4.89
2022-12-03T01:47:19.596Z,4.91
2022-12-03T01:49:55.488Z,4.92
2022-12-03T01:52:28.220Z,4.93
2022-12-03T01:55:01.013Z,4.95
2022-12-03T01:57:43.788Z,4.96
2022-12-03T02:00:17.086Z,4.95
2022-12-03T02:02:51.156Z,4.95
2022-12-03T02:05:23.451Z,4.97
2022-12-03T02:07:53.816Z,4.90
2022-12-03T02:10:34.054Z,4.99
2022-12-03T02:13:06.697Z,4.98
2022-12-03T02:15:37.377Z,5.01
2022-12-03T02:18:11.683Z,4.99
2022-12-03T02:20:48.951Z,5.00
2022-12-03T02:23:29.329Z,5.03
2022-12-03T02:26:02.068Z,5.03
2022-12-03T02:28:32.143Z,5.04
2022-12-03T02:31:02.291Z,5.04
2022-12-03T02:33:32.280Z,5.05
2022-12-03T02:36:04.072Z,5.07
2022-12-03T02:38:37.039Z,5.01
2022-12-03T02:41:32.085Z,5.06
2022-12-03T02:43:59.554Z,5.05
2022-12-03T02:46:29.727Z,5.06
2022-12-03T02:49:00.588Z,4.98
2022-12-03T02:51:30.755Z,5.07
2022-12-03T02:54:01.712Z,5.07
2022-12-03T02:56:35.980Z,5.10
2022-12-03T02:59:08.377Z,5.08
2022-12-03T03:01:38.515Z,5.10
2022-12-03T03:04:09.371Z,5.08
2022-12-03T03:06:39.405Z,5.10
2022-12-03T03:09:09.723Z,5.11
2022-12-03T03:11:42.708Z,5.11
2022-12-03T03:14:12.828Z,5.11
2022-12-03T03:16:42.979Z,5.10
2022-12-03T03:19:13.314Z,5.08
2022-12-03T03:21:43.339Z,5.07
2022-12-03T03:24:13.416Z,5.07
2022-12-03T03:26:46.224Z,5.08
2022-12-03T03:29:16.759Z,5.11
2022-12-03T03:31:48.826Z,5.09
2022-12-03T03:34:19.539Z,5.09
2022-12-03T03:36:49.768Z,5.10
2022-12-03T03:39:20.173Z,5.11
2022-12-03T03:41:52.882Z,5.13
2022-12-03T03:44:22.998Z,5.13
2022-12-03T03:46:53.126Z,5.12
2022-12-03T03:49:23.547Z,5.11
2022-12-03T03:51:53.856Z,5.13
2022-12-03T03:54:24.640Z,5.13
2022-12-03T03:56:57.515Z,5.16
2022-12-03T03:59:27.636Z,5.15
2022-12-03T04:01:57.918Z,5.15
2022-12-03T04:04:29.271Z,5.15
2022-12-03T04:06:59.371Z,5.12
2022-12-03T04:09:29.595Z,5.13
2022-12-03T04:12:14.653Z,5.12
2022-12-03T04:14:44.740Z,5.10
2022-12-03T04:17:14.879Z,5.08
2022-12-03T04:19:45.114Z,5.06
2022-12-03T04:22:27.548Z,5.01
2022-12-03T04:25:18.028Z,4.97
2022-12-03T04:28:14.967Z,5.06
2022-12-03T04:30:45.203Z,4.94
2022-12-03T04:33:27.415Z,4.95
2022-12-03T04:35:57.533Z,4.92
2022-12-03T04:38:28.228Z,4.94
2022-12-03T04:41:04.500Z,4.92
2022-12-03T04:43:57.869Z,4.92
2022-12-03T04:46:27.906Z,4.91
2022-12-03T04:48:59.419Z,4.88
2022-12-03T04:51:29.473Z,4.86
2022-12-03T04:53:59.581Z,4.83
2022-12-03T04:56:29.536Z,4.81
2022-12-03T04:59:02.346Z,4.75
2022-12-03T05:01:32.588Z,4.67
2022-12-03T05:04:02.803Z,4.59
2022-12-03T05:06:32.949Z,4.52
2022-12-03T05:09:02.996Z,4.45
2022-12-03T05:11:33.185Z,4.42
2022-12-03T05:14:06.180Z,4.40
2022-12-03T05:16:36.249Z,4.33
2022-12-03T05:19:07.882Z,4.27
2022-12-03T05:21:35.816Z,4.20
2022-12-03T05:24:06.071Z,4.15
2022-12-03T05:26:36.193Z,4.06
2022-12-03T05:29:08.894Z,3.99
2022-12-03T05:31:38.915Z,3.90
2022-12-03T05:34:08.940Z,3.82
2022-12-03T05:36:38.950Z,3.78
2022-12-03T05:39:12.842Z,3.75
2022-12-03T05:41:55.163Z,3.75
2022-12-03T05:44:27.813Z,3.68
2022-12-03T05:46:57.899Z,3.61
2022-12-03T05:49:27.956Z,3.54
2022-12-03T05:51:58.858Z,3.44
2022-12-03T05:54:29.121Z,3.35
2022-12-03T05:56:59.260Z,3.27
2022-12-03T05:59:32.010Z,3.21
2022-12-03T06:02:02.088Z,3.11
2022-12-03T06:04:32.181Z,3.00
2022-12-03T06:07:02.225Z,2.96
2022-12-03T06:09:32.351Z,2.90
2022-12-03T06:12:02.435Z,2.87
2022-12-03T06:14:35.859Z,2.79
2022-12-03T06:17:05.946Z,2.73
2022-12-03T06:19:36.174Z,2.70
2022-12-03T06:22:06.242Z,2.66
2022-12-03T06:24:36.354Z,2.67
2022-12-03T06:27:06.580Z,2.66
2022-12-03T06:29:39.396Z,2.67
2022-12-03T06:32:09.841Z,2.64
2022-12-03T06:34:40.245Z,2.65
2022-12-03T06:37:10.350Z,2.65
2022-12-03T06:39:40.359Z,2.68
2022-12-03T06:42:10.475Z,2.71
2022-12-03T06:44:43.181Z,2.77
2022-12-03T06:47:13.236Z,2.79
2022-12-03T06:49:43.347Z,2.84
2022-12-03T06:52:13.439Z,2.90
2022-12-03T06:54:43.483Z,2.98
2022-12-03T06:57:13.547Z,3.16
2022-12-03T06:59:46.166Z,3.37
2022-12-03T07:02:16.397Z,3.54
2022-12-03T07:04:46.681Z,3.67
2022-12-03T07:07:17.243Z,3.85
2022-12-03T07:09:47.356Z,3.98
2022-12-03T07:12:17.480Z,4.16
2022-12-03T07:14:50.307Z,4.31
2022-12-03T07:17:20.380Z,4.39
2022-12-03T07:19:50.457Z,4.42
2022-12-03T07:22:20.591Z,4.50
2022-12-03T07:24:50.860Z,4.58
2022-12-03T07:27:21.285Z,4.77
2022-12-03T07:29:54.035Z,4.99
2022-12-03T07:32:26.521Z,5.08
2022-12-03T07:34:56.732Z,5.13
2022-12-03T07:37:27.002Z,5.28
2022-12-03T07:39:57.079Z,5.33
2022-12-03T07:42:27.788Z,5.42
2022-12-03T07:45:00.477Z,5.49
2022-12-03T07:47:30.629Z,5.55
2022-12-03T07:50:00.694Z,5.59
2022-12-03T07:52:30.998Z,5.72
2022-12-03T07:55:01.128Z,5.89
2022-12-03T07:57:31.300Z,6.10
2022-12-03T08:00:05.443Z,6.24
2022-12-03T08:02:35.660Z,6.36
2022-12-03T08:05:05.857Z,6.39
2022-12-03T08:07:36.025Z,6.40
2022-12-03T08:10:07.209Z,6.40
2022-12-03T08:12:42.807Z,6.53
2022-12-03T08:15:18.616Z,6.59
2022-12-03T08:17:54.061Z,6.64
2022-12-03T08:20:26.423Z,6.76
2022-12-03T08:22:59.780Z,6.80
2022-12-03T08:25:31.901Z,6.74
2022-12-03T08:28:10.914Z,6.78
2022-12-03T08:30:43.770Z,6.95
2022-12-03T08:33:20.734Z,6.96
2022-12-03T08:35:53.642Z,7.05
2022-12-03T08:38:26.126Z,7.06
2022-12-03T08:40:58.073Z,7.11
2022-12-03T08:43:29.981Z,7.19
2022-12-03T08:46:02.834Z,7.15
2022-12-03T08:48:37.763Z,7.18
2022-12-03T08:51:15.842Z,7.23
2022-12-03T08:53:49.004Z,7.05
2022-12-03T08:56:27.020Z,7.24
2022-12-03T08:59:00.822Z,7.15
2022-12-03T09:01:42.194Z,7.22
2022-12-03T09:04:28.182Z,7.26
2022-12-03T09:06:59.279Z,7.21
2022-12-03T09:09:30.444Z,7.26
2022-12-03T09:12:02.274Z,7.28
2022-12-03T09:14:32.979Z,7.31
2022-12-03T09:17:05.975Z,7.43
2022-12-03T09:19:38.984Z,7.50
2022-12-03T09:22:11.650Z,7.50
2022-12-03T09:24:42.627Z,7.60
2022-12-03T09:27:13.039Z,7.61
2022-12-03T09:29:43.368Z,7.70
2022-12-03T09:32:18.626Z,7.76
2022-12-03T09:34:49.091Z,7.84
2022-12-03T09:37:19.299Z,8.04
2022-12-03T09:39:49.463Z,8.18
2022-12-03T09:42:20.128Z,8.36
2022-12-03T09:44:50.223Z,8.55
2022-12-03T09:47:23.639Z,8.68
2022-12-03T09:49:54.708Z,8.73
2022-12-03T09:52:27.648Z,8.71
2022-12-03T09:54:58.520Z,8.63
2022-12-03T09:57:28.750Z,8.70
2022-12-03T09:59:59.049Z,8.76
2022-12-03T10:02:34.432Z,9.01
2022-12-03T10:05:04.674Z,8.96
2022-12-03T10:07:34.922Z,8.99
2022-12-03T10:10:05.064Z,9.01
2022-12-03T10:12:35.161Z,9.14
2022-12-03T10:15:05.407Z,9.17
2022-12-03T10:17:38.152Z,9.24
2022-12-03T10:20:10.718Z,9.20
2022-12-03T10:22:40.901Z,9.17
2022-12-03T10:25:13.129Z,9.24
2022-12-03T10:27:44.471Z,9.24
2022-12-03T10:30:19.791Z,9.27
2022-12-03T10:32:53.999Z,9.33
2022-12-03T10:35:26.754Z,9.37
2022-12-03T10:38:03.271Z,9.34
2022-12-03T10:40:35.358Z,9.31
2022-12-03T10:43:24.495Z,9.41
2022-12-03T10:46:14.137Z,9.57
2022-12-03T10:49:13.494Z,9.46
2022-12-03T10:51:43.739Z,9.45
2022-12-03T10:54:21.389Z,9.43
2022-12-03T10:56:55.185Z,9.48
2022-12-03T10:59:28.024Z,9.48
2022-12-03T11:01:58.476Z,9.47
2022-12-03T11:04:35.191Z,9.48
2022-12-03T11:07:06.208Z,9.47
2022-12-03T11:09:37.288Z,9.61
2022-12-03T11:12:08.914Z,9.58
2022-12-03T11:15:10.493Z,9.73
2022-12-03T11:17:49.487Z,9.85
2022-12-03T11:21:01.295Z,9.90
2022-12-03T11:24:01.356Z,9.88
2022-12-03T11:27:01.330Z,9.86
2022-12-03T11:29:53.409Z,9.98
2022-12-03T11:33:02.868Z,9.94
2022-12-03T11:35:40.281Z,9.82
2022-12-03T11:38:52.250Z,9.86
2022-12-03T11:41:25.465Z,10.06
2022-12-03T11:44:34.257Z,10.13
2022-12-03T11:47:16.913Z,10.11
2022-12-03T11:49:51.962Z,10.13
2022-12-03T11:52:28.553Z,9.96
2022-12-03T11:55:04.405Z,9.79
2022-12-03T11:57:40.519Z,9.91
2022-12-03T12:00:23.444Z,9.97
2022-12-03T12:02:58.259Z,10.02
2022-12-03T12:05:32.626Z,10.09
2022-12-03T12:08:04.261Z,10.15
2022-12-03T12:10:55.421Z,10.18
2022-12-03T12:13:29.933Z,10.19
2022-12-03T12:16:00.107Z,10.02
2022-12-03T12:18:43.947Z,10.07
2022-12-03T12:21:41.960Z,10.07
2022-12-03T12:24:36.059Z,9.97
2022-12-03T12:27:09.542Z,10.04
2022-12-03T12:29:40.543Z,10.00
2022-12-03T12:32:17.563Z,10.03
2022-12-03T12:34:52.609Z,10.02
2022-12-03T12:37:24.380Z,9.99
2022-12-03T12:39:58.920Z,9.99
2022-12-03T12:42:37.810Z,10.01
2022-12-03T12:45:19.070Z,9.96
2022-12-03T12:48:03.292Z,10.01
2022-12-03T12:50:36.572Z,9.98
2022-12-03T12:53:14.264Z,9.82
2022-12-03T12:55:44.409Z,9.67
2022-12-03T12:58:18.598Z,9.52
2022-12-03T13:00:49.382Z,9.67
2022-12-03T13:03:20.764Z,9.66
2022-12-03T13:05:55.152Z,9.60
2022-12-03T13:08:30.183Z,9.66
2022-12-03T13:11:01.437Z,9.63
2022-12-03T13:13:43.910Z,9.62
2022-12-03T13:16:21.007Z,9.60
2022-12-03T13:18:52.506Z,9.53
2022-12-03T13:21:28.588Z,9.36
2022-12-03T13:24:00.184Z,9.42
2022-12-03T13:26:41.394Z,9.41
2022-12-03T13:29:17.829Z,9.24
2022-12-03T13:31:54.715Z,9.31
2022-12-03T13:34:27.536Z,9.24
2022-12-03T13:37:00.364Z,9.16
2022-12-03T13:39:35.273Z,8.99
2022-12-03T13:42:33.026Z,8.97
2022-12-03T13:45:04.614Z,8.97
2022-12-03T13:47:35.227Z,8.98
2022-12-03T13:50:13.424Z,8.95
2022-12-03T13:52:46.109Z,8.90
2022-12-03T13:55:18.381Z,8.81
2022-12-03T13:57:48.608Z,8.80
2022-12-03T14:00:19.119Z,8.67
2022-12-03T14:02:49.868Z,8.64
2022-12-03T14:05:20.192Z,8.56
2022-12-03T14:07:58.171Z,8.52
2022-12-03T14:10:33.796Z,8.43
2022-12-03T14:13:18.938Z,8.42
2022-12-03T14:15:48.967Z,8.33
2022-12-03T14:18:19.141Z,8.23
2022-12-03T14:20:49.477Z,8.19
2022-12-03T14:23:22.253Z,8.03
2022-12-03T14:25:52.281Z,8.07
2022-12-03T14:28:22.499Z,7.95
2022-12-03T14:30:52.519Z,7.87
2022-12-03T14:33:22.571Z,7.75
2022-12-03T14:35:54.416Z,7.66
2022-12-03T14:38:27.228Z,7.56
2022-12-03T14:40:57.312Z,7.52
2022-12-03T14:43:27.368Z,7.43
2022-12-03T14:45:57.526Z,7.40
2022-12-03T14:48:28.300Z,7.30
2022-12-03T14:50:58.340Z,7.18
2022-12-03T14:53:31.196Z,7.06
2022-12-03T14:56:01.273Z,6.93
2022-12-03T14:58:31.433Z,6.88
2022-12-03T15:01:01.614Z,6.83
2022-12-03T15:03:31.709Z,6.73
2022-12-03T15:06:02.412Z,6.64
2022-12-03T15:08:35.094Z,6.54
2022-12-03T15:11:07.714Z,6.45
2022-12-03T15:13:37.814Z,6.35
2022-12-03T15:16:08.726Z,6.27
2022-12-03T15:18:38.808Z,6.17
2022-12-03T15:21:09.258Z,6.09
2022-12-03T15:23:42.201Z,5.99
2022-12-03T15:26:12.364Z,5.92
2022-12-03T15:28:47.921Z,5.88
2022-12-03T15:31:18.462Z,5.82
2022-12-03T15:33:50.097Z,5.75
2022-12-03T15:36:20.213Z,5.67
2022-12-03T15:38:53.003Z,5.59
2022-12-03T15:41:24.946Z,5.52
2022-12-03T15:43:55.620Z,5.45
2022-12-03T15:46:27.819Z,5.43
2022-12-03T15:48:58.669Z,5.36
2022-12-03T15:51:28.849Z,5.43
2022-12-03T15:54:01.500Z,5.44
2022-12-03T15:56:31.564Z,5.45
2022-12-03T15:59:01.719Z,5.46
2022-12-03T16:01:31.860Z,5.45
2022-12-03T16:04:01.990Z,5.41
2022-12-03T16:06:32.016Z,5.35
2022-12-03T16:09:04.716Z,5.32
2022-12-03T16:11:34.784Z,5.28
2022-12-03T16:14:04.923Z,5.28
2022-12-03T16:16:35.036Z,5.27
2022-12-03T16:19:05.663Z,5.22
2022-12-03T16:21:35.925Z,5.17
2022-12-03T16:24:09.100Z,5.10
2022-12-03T16:26:39.292Z,5.03
2022-12-03T16:29:12.159Z,4.96
2022-12-03T16:31:42.241Z,4.92
2022-12-03T16:34:12.426Z,4.86
2022-12-03T16:36:42.593Z,4.78
2022-12-03T16:39:16.569Z,4.72
2022-12-03T16:41:46.843Z,4.69
2022-12-03T16:44:30.619Z,4.63
2022-12-03T16:47:01.630Z,4.57
2022-12-03T16:49:31.803Z,4.53
2022-12-03T16:52:01.878Z,4.47
2022-12-03T16:54:34.468Z,4.38
2022-12-03T16:57:04.474Z,4.31
2022-12-03T16:59:34.928Z,4.28
2022-12-03T17:02:05.146Z,4.22
2022-12-03T17:04:35.361Z,4.18
2022-12-03T17:07:05.454Z,4.12
2022-12-03T17:09:39.655Z,4.08
2022-12-03T17:12:10.500Z,4.03
2022-12-03T17:14:48.976Z,3.99
2022-12-03T17:17:19.238Z,3.91
2022-12-03T17:19:50.483Z,3.93
2022-12-03T17:22:20.596Z,3.91
2022-12-03T17:24:55.448Z,3.88
2022-12-03T17:27:25.891Z,3.86
2022-12-03T17:29:56.283Z,3.87
2022-12-03T17:32:26.575Z,3.90
2022-12-03T17:34:56.605Z,3.90
2022-12-03T17:37:26.797Z,3.89
2022-12-03T17:39:59.457Z,3.91
2022-12-03T17:42:29.687Z,3.90
2022-12-03T17:44:59.861Z,3.92
2022-12-03T17:47:29.949Z,3.94
2022-12-03T17:50:00.328Z,3.93
2022-12-03T17:52:30.467Z,3.91
2022-12-03T17:55:15.793Z,3.90
2022-12-03T17:57:50.492Z,3.83
2022-12-03T18:00:21.143Z,3.81
2022-12-03T18:02:51.203Z,3.72
2022-12-03T18:05:21.238Z,3.68
2022-12-03T18:07:51.449Z,3.61
2022-12-03T18:10:24.160Z,3.58
2022-12-03T18:12:59.835Z,3.56
2022-12-03T18:15:31.708Z,3.57
2022-12-03T18:18:01.815Z,3.56
2022-12-03T18:20:32.227Z,3.55
2022-12-03T18:23:02.551Z,3.57
2022-12-03T18:25:35.383Z,3.63
2022-12-03T18:28:05.452Z,3.70
2022-12-03T18:30:35.649Z,3.73
2022-12-03T18:33:05.902Z,3.79
2022-12-03T18:35:36.107Z,3.96
2022-12-03T18:38:06.488Z,4.02
2022-12-03T18:40:39.733Z,4.05
2022-12-03T18:43:14.511Z,4.07
2022-12-03T18:45:45.046Z,4.09
2022-12-03T18:48:16.133Z,4.11
2022-12-03T18:50:46.640Z,4.12
2022-12-03T18:53:18.769Z,4.15
2022-12-03T18:55:51.598Z,4.14
2022-12-03T18:58:21.680Z,4.12
2022-12-03T19:00:51.841Z,4.16
2022-12-03T19:03:22.188Z,4.23
2022-12-03T19:05:52.451Z,4.25
2022-12-03T19:08:22.600Z,4.22
2022-12-03T19:11:01.791Z,4.17
2022-12-03T19:13:31.944Z,4.18
2022-12-03T19:16:04.960Z,4.16
2022-12-03T19:18:35.115Z,4.17
2022-12-03T19:21:09.621Z,4.25
2022-12-03T19:23:40.353Z,4.24
2022-12-03T19:26:14.079Z,4.23
2022-12-03T19:28:44.991Z,4.25
2022-12-03T19:31:17.278Z,4.28
2022-12-03T19:33:48.455Z,4.30
2022-12-03T19:36:24.401Z,4.33
2022-12-03T19:38:57.303Z,4.36
2022-12-03T19:41:33.463Z,4.45
2022-12-03T19:44:09.256Z,4.47
2022-12-03T19:46:41.003Z,4.52
2022-12-03T19:49:11.485Z,4.56
2022-12-03T19:51:41.546Z,4.63
2022-12-03T19:54:14.663Z,4.71
2022-12-03T19:56:47.490Z,4.87
2022-12-03T19:59:17.647Z,4.92
2022-12-03T20:01:47.955Z,5.05
2022-12-03T20:04:18.072Z,5.13
2022-12-03T20:06:48.444Z,5.15
2022-12-03T20:09:21.281Z,5.19
2022-12-03T20:11:55.543Z,5.16
2022-12-03T20:14:25.795Z,5.09
2022-12-03T20:17:00.921Z,5.04
2022-12-03T20:19:31.072Z,5.03
2022-12-03T20:22:03.021Z,5.07
2022-12-03T20:24:33.245Z,5.02
2022-12-03T20:27:06.086Z,5.04
2022-12-03T20:29:36.310Z,5.07
2022-12-03T20:32:07.158Z,5.10
2022-12-03T20:34:38.217Z,5.20
2022-12-03T20:37:08.315Z,5.19
2022-12-03T20:39:38.370Z,5.18
2022-12-03T20:42:11.613Z,5.14
2022-12-03T20:44:41.685Z,5.15
2022-12-03T20:47:11.844Z,5.22
2022-12-03T20:49:42.095Z,5.22
2022-12-03T20:52:12.136Z,5.21
2022-12-03T20:54:42.123Z,5.21
2022-12-03T20:57:14.846Z,5.15
2022-12-03T20:59:45.027Z,5.15
2022-12-03T21:02:15.235Z,5.17
2022-12-03T21:04:45.440Z,5.21
2022-12-03T21:07:15.620Z,5.21
2022-12-03T21:09:45.723Z,5.20
2022-12-03T21:12:18.376Z,5.21
2022-12-03T21:14:48.743Z,5.18
2022-12-03T21:17:19.028Z,5.20
2022-12-03T21:19:49.699Z,5.15
2022-12-03T21:22:19.761Z,5.12
2022-12-03T21:24:52.129Z,5.11
2022-12-03T21:27:24.881Z,5.11
2022-12-03T21:29:55.377Z,5.17
2022-12-03T21:32:25.752Z,5.21
2022-12-03T21:34:55.824Z,5.19
2022-12-03T21:37:25.877Z,5.17
2022-12-03T21:39:56.038Z,5.15
2022-12-03T21:42:35.893Z,5.12
2022-12-03T21:45:08.358Z,5.10
2022-12-03T21:47:38.513Z,5.14
2022-12-03T21:50:12.353Z,5.11
2022-12-03T21:52:42.425Z,5.12
2022-12-03T21:55:13.227Z,5.11
2022-12-03T21:57:51.296Z,5.12
2022-12-03T22:00:21.939Z,5.16
2022-12-03T22:02:52.534Z,5.11
2022-12-03T22:05:22.791Z,5.17
2022-12-03T22:07:53.023Z,5.16
2022-12-03T22:10:23.443Z,5.12
2022-12-03T22:12:57.168Z,5.17
2022-12-03T22:15:27.199Z,5.13
2022-12-03T22:19:41.067Z,5.17
2022-12-03T22:22:11.633Z,5.13
2022-12-03T22:24:42.064Z,5.10
2022-12-03T22:27:12.230Z,5.12
2022-12-03T22:29:42.328Z,5.15
2022-12-03T22:32:12.440Z,5.17
2022-12-03T22:34:45.472Z,5.21
2022-12-03T22:37:15.590Z,5.25
2022-12-03T22:39:45.727Z,5.27
2022-12-03T22:42:15.926Z,5.38
2022-12-03T22:44:46.000Z,5.43
2022-12-03T22:47:16.143Z,5.49
2022-12-03T22:49:48.851Z,5.52
2022-12-03T22:52:19.112Z,5.53
2022-12-03T22:54:49.219Z,5.58
2022-12-03T22:57:19.426Z,5.50
2022-12-03T22:59:49.908Z,5.50
2022-12-03T23:02:20.663Z,5.58
2022-12-03T23:04:53.534Z,5.60
2022-12-03T23:07:23.542Z,5.59
2022-12-03T23:09:54.427Z,5.60
2022-12-03T23:12:24.903Z,5.64
2022-12-03T23:14:57.605Z,5.65
2022-12-03T23:17:28.660Z,5.60
2022-12-03T23:20:01.758Z,5.57
2022-12-03T23:22:31.861Z,5.54
2022-12-03T23:25:01.880Z,5.51
2022-12-03T23:27:32.022Z,5.44
2022-12-03T23:30:02.427Z,5.48
2022-12-03T23:32:33.344Z,5.49
2022-12-03T23:35:06.952Z,5.52
2022-12-03T23:37:39.805Z,5.59
2022-12-03T23:40:11.372Z,5.69
2022-12-03T23:42:41.467Z,5.69
2022-12-03T23:45:12.680Z,5.76
2022-12-03T23:47:42.809Z,5.79
2022-12-03T23:50:16.062Z,5.80
2022-12-03T23:52:46.252Z,5.86
2022-12-03T23:55:16.367Z,5.90
2022-12-03T23:57:46.459Z,5.93
